sensor_id;sensor_type;location;lat;lon;timestamp;pressure;altitude;pressure_sealevel;temperature;humidity
29215;BME280;16252;49.816;7.964;2023-04-27T00:01:48;100182.78;;;9.75;45.77
29215;BME280;16252;49.816;7.964;2023-04-27T00:04:13;100168.66;;;9.61;45.88
29215;BME280;16252;49.816;7.964;2023-04-27T00:06:40;100174.09;;;9.59;45.88
29215;BME280;16252;49.816;7.964;2023-04-27T00:09:06;100197.06;;;9.74;45.91
29215;BME280;16252;49.816;7.964;2023-04-27T00:11:31;100172.72;;;9.53;46.10
29215;BME280;16252;49.816;7.964;2023-04-27T00:13:57;100154.44;;;9.35;46.13
29215;BME280;16252;49.816;7.964;2023-04-27T00:16:22;100182.47;;;9.54;46.11
29215;BME280;16252;49.816;7.964;2023-04-27T00:18:47;100179.22;;;9.49;46.03
29215;BME280;16252;49.816;7.964;2023-04-27T00:21:13;100198.03;;;9.61;46.37
29215;BME280;16252;49.816;7.964;2023-04-27T00:23:38;100152.09;;;9.30;46.12
29215;BME280;16252;49.816;7.964;2023-04-27T00:26:03;100171.88;;;9.53;46.17
29215;BME280;16252;49.816;7.964;2023-04-27T00:28:29;100137.00;;;9.29;46.00
29215;BME280;16252;49.816;7.964;2023-04-27T00:30:54;100180.81;;;9.52;45.97
29215;BME280;16252;49.816;7.964;2023-04-27T00:33:20;100196.22;;;9.61;46.17
29215;BME280;16252;49.816;7.964;2023-04-27T00:35:45;100205.63;;;9.67;46.25
29215;BME280;16252;49.816;7.964;2023-04-27T00:38:11;100174.84;;;9.48;46.22
29215;BME280;16252;49.816;7.964;2023-04-27T00:40:39;100157.44;;;9.30;46.18
29215;BME280;16252;49.816;7.964;2023-04-27T00:43:04;100168.97;;;9.30;46.26
29215;BME280;16252;49.816;7.964;2023-04-27T00:45:30;100179.09;;;9.38;46.25
29215;BME280;16252;49.816;7.964;2023-04-27T00:47:55;100175.91;;;9.33;46.22
29215;BME280;16252;49.816;7.964;2023-04-27T00:50:26;100167.66;;;9.23;46.72
29215;BME280;16252;49.816;7.964;2023-04-27T00:52:53;100156.03;;;9.11;46.27
29215;BME280;16252;49.816;7.964;2023-04-27T00:55:19;100137.94;;;9.02;46.26
29215;BME280;16252;49.816;7.964;2023-04-27T00:57:44;100155.81;;;9.15;46.14
29215;BME280;16252;49.816;7.964;2023-04-27T01:00:11;100179.31;;;9.22;46.38
29215;BME280;16252;49.816;7.964;2023-04-27T01:02:37;100186.34;;;9.23;46.43
29215;BME280;16252;49.816;7.964;2023-04-27T01:05:04;100188.38;;;9.20;46.41
29215;BME280;16252;49.816;7.964;2023-04-27T01:07:29;100180.03;;;9.11;46.16
29215;BME280;16252;49.816;7.964;2023-04-27T01:09:57;100177.56;;;9.08;46.41
29215;BME280;16252;49.816;7.964;2023-04-27T01:12:23;100210.38;;;9.23;46.28
29215;BME280;16252;49.816;7.964;2023-04-27T01:14:48;100144.84;;;8.79;46.23
29215;BME280;16252;49.816;7.964;2023-04-27T01:17:14;100169.94;;;8.89;46.23
29215;BME280;16252;49.816;7.964;2023-04-27T01:19:39;100178.16;;;8.86;46.44
29215;BME280;16252;49.816;7.964;2023-04-27T01:22:04;100202.59;;;8.93;46.47
29215;BME280;16252;49.816;7.964;2023-04-27T01:24:32;100158.13;;;8.66;46.61
29215;BME280;16252;49.816;7.964;2023-04-27T01:26:57;100187.00;;;8.87;46.73
29215;BME280;16252;49.816;7.964;2023-04-27T01:29:22;100144.34;;;8.60;46.63
29215;BME280;16252;49.816;7.964;2023-04-27T01:31:48;100210.41;;;8.96;46.69
29215;BME280;16252;49.816;7.964;2023-04-27T01:34:13;100167.63;;;8.71;46.73
29215;BME280;16252;49.816;7.964;2023-04-27T01:36:38;100176.59;;;8.70;46.69
29215;BME280;16252;49.816;7.964;2023-04-27T01:39:04;100206.06;;;8.81;46.63
29215;BME280;16252;49.816;7.964;2023-04-27T01:41:33;100195.06;;;8.73;46.65
29215;BME280;16252;49.816;7.964;2023-04-27T01:43:58;100197.09;;;8.69;46.69
29215;BME280;16252;49.816;7.964;2023-04-27T01:46:23;100191.19;;;8.64;46.44
29215;BME280;16252;49.816;7.964;2023-04-27T01:48:48;100193.09;;;8.62;46.48
29215;BME280;16252;49.816;7.964;2023-04-27T01:51:14;100176.28;;;8.47;46.62
29215;BME280;16252;49.816;7.964;2023-04-27T01:53:40;100213.38;;;8.64;46.85
29215;BME280;16252;49.816;7.964;2023-04-27T01:56:05;100194.75;;;8.50;46.74
29215;BME280;16252;49.816;7.964;2023-04-27T01:58:30;100173.44;;;8.36;47.01
29215;BME280;16252;49.816;7.964;2023-04-27T02:00:56;100187.03;;;8.45;47.08
29215;BME280;16252;49.816;7.964;2023-04-27T02:03:21;100190.75;;;8.43;46.83
29215;BME280;16252;49.816;7.964;2023-04-27T02:05:47;100189.91;;;8.42;47.00
29215;BME280;16252;49.816;7.964;2023-04-27T02:08:12;100206.47;;;8.48;46.90
29215;BME280;16252;49.816;7.964;2023-04-27T02:10:37;100202.31;;;8.43;46.81
29215;BME280;16252;49.816;7.964;2023-04-27T02:13:03;100184.47;;;8.30;47.12
29215;BME280;16252;49.816;7.964;2023-04-27T02:15:28;100192.19;;;8.34;47.05
29215;BME280;16252;49.816;7.964;2023-04-27T02:17:53;100215.44;;;8.46;47.09
29215;BME280;16252;49.816;7.964;2023-04-27T02:20:19;100203.44;;;8.39;47.26
29215;BME280;16252;49.816;7.964;2023-04-27T02:22:44;100238.72;;;8.57;46.98
29215;BME280;16252;49.816;7.964;2023-04-27T02:25:10;100172.13;;;8.14;47.13
29215;BME280;16252;49.816;7.964;2023-04-27T02:27:39;100233.69;;;8.53;47.47
29215;BME280;16252;49.816;7.964;2023-04-27T02:30:07;100240.75;;;8.54;47.12
29215;BME280;16252;49.816;7.964;2023-04-27T02:32:33;100240.00;;;8.52;47.06
29215;BME280;16252;49.816;7.964;2023-04-27T02:34:59;100223.81;;;8.40;47.09
29215;BME280;16252;49.816;7.964;2023-04-27T02:37:24;100221.31;;;8.37;47.20
29215;BME280;16252;49.816;7.964;2023-04-27T02:39:50;100229.91;;;8.42;47.00
29215;BME280;16252;49.816;7.964;2023-04-27T02:42:15;100235.91;;;8.46;47.28
29215;BME280;16252;49.816;7.964;2023-04-27T02:44:40;100211.69;;;8.35;47.01
29215;BME280;16252;49.816;7.964;2023-04-27T02:47:06;100233.91;;;8.50;47.13
29215;BME280;16252;49.816;7.964;2023-04-27T02:49:31;100227.34;;;8.41;47.20
29215;BME280;16252;49.816;7.964;2023-04-27T02:51:57;100207.53;;;8.31;47.18
29215;BME280;16252;49.816;7.964;2023-04-27T02:54:22;100209.31;;;8.30;47.01
29215;BME280;16252;49.816;7.964;2023-04-27T02:56:48;100222.09;;;8.39;47.23
29215;BME280;16252;49.816;7.964;2023-04-27T02:59:13;100182.03;;;8.12;47.22
29215;BME280;16252;49.816;7.964;2023-04-27T03:01:38;100220.75;;;8.32;47.22
29215;BME280;16252;49.816;7.964;2023-04-27T03:04:03;100193.66;;;8.11;47.16
29215;BME280;16252;49.816;7.964;2023-04-27T03:06:29;100225.72;;;8.24;47.21
29215;BME280;16252;49.816;7.964;2023-04-27T03:08:54;100233.78;;;8.22;47.13
29215;BME280;16252;49.816;7.964;2023-04-27T03:11:19;100219.25;;;8.14;47.13
29215;BME280;16252;49.816;7.964;2023-04-27T03:13:45;100162.44;;;7.70;47.08
29215;BME280;16252;49.816;7.964;2023-04-27T03:16:11;100242.19;;;8.16;47.32
29215;BME280;16252;49.816;7.964;2023-04-27T03:18:37;100197.75;;;7.88;47.35
29215;BME280;16252;49.816;7.964;2023-04-27T03:21:06;100223.81;;;7.97;47.88
29215;BME280;16252;49.816;7.964;2023-04-27T03:23:32;100209.44;;;7.86;47.31
29215;BME280;16252;49.816;7.964;2023-04-27T03:25:58;100194.03;;;7.76;47.36
29215;BME280;16252;49.816;7.964;2023-04-27T03:28:24;100191.75;;;7.70;47.42
29215;BME280;16252;49.816;7.964;2023-04-27T03:30:49;100211.34;;;7.84;47.52
29215;BME280;16252;49.816;7.964;2023-04-27T03:33:14;100205.84;;;7.72;47.60
29215;BME280;16252;49.816;7.964;2023-04-27T03:35:40;100214.41;;;7.77;47.70
29215;BME280;16252;49.816;7.964;2023-04-27T03:38:05;100197.28;;;7.67;47.96
29215;BME280;16252;49.816;7.964;2023-04-27T03:40:30;100222.84;;;7.84;47.86
29215;BME280;16252;49.816;7.964;2023-04-27T03:42:56;100152.53;;;7.44;47.99
29215;BME280;16252;49.816;7.964;2023-04-27T03:45:21;100222.66;;;7.87;47.83
29215;BME280;16252;49.816;7.964;2023-04-27T03:47:46;100213.44;;;7.93;47.76
29215;BME280;16252;49.816;7.964;2023-04-27T03:50:12;100204.88;;;7.88;47.96
29215;BME280;16252;49.816;7.964;2023-04-27T03:52:37;100197.25;;;7.81;47.89
29215;BME280;16252;49.816;7.964;2023-04-27T03:55:03;100159.97;;;7.67;47.84
29215;BME280;16252;49.816;7.964;2023-04-27T03:57:28;100168.25;;;7.77;47.84
29215;BME280;16252;49.816;7.964;2023-04-27T03:59:53;100137.06;;;7.65;47.89
29215;BME280;16252;49.816;7.964;2023-04-27T04:02:18;100200.31;;;8.04;47.88
29215;BME280;16252;49.816;7.964;2023-04-27T04:04:44;100195.75;;;8.06;47.88
29215;BME280;16252;49.816;7.964;2023-04-27T04:07:09;100206.78;;;8.14;47.96
29215;BME280;16252;49.816;7.964;2023-04-27T04:09:35;100212.94;;;8.15;47.75
29215;BME280;16252;49.816;7.964;2023-04-27T04:12:00;100210.19;;;8.16;47.90
29215;BME280;16252;49.816;7.964;2023-04-27T04:14:26;100215.44;;;8.18;48.17
29215;BME280;16252;49.816;7.964;2023-04-27T04:16:51;100220.78;;;8.18;48.17
29215;BME280;16252;49.816;7.964;2023-04-27T04:19:17;100215.53;;;8.16;48.08
29215;BME280;16252;49.816;7.964;2023-04-27T04:21:42;100222.97;;;8.25;48.42
29215;BME280;16252;49.816;7.964;2023-04-27T04:24:07;100188.88;;;8.02;48.23
29215;BME280;16252;49.816;7.964;2023-04-27T04:26:34;100215.72;;;8.13;48.22
29215;BME280;16252;49.816;7.964;2023-04-27T04:28:59;100208.78;;;8.11;48.16
29215;BME280;16252;49.816;7.964;2023-04-27T04:31:25;100213.06;;;8.13;48.51
29215;BME280;16252;49.816;7.964;2023-04-27T04:33:50;100225.91;;;8.21;48.31
29215;BME280;16252;49.816;7.964;2023-04-27T04:36:15;100227.41;;;8.25;48.50
29215;BME280;16252;49.816;7.964;2023-04-27T04:38:41;100240.44;;;8.30;48.65
29215;BME280;16252;49.816;7.964;2023-04-27T04:41:06;100220.66;;;8.19;48.56
29215;BME280;16252;49.816;7.964;2023-04-27T04:43:32;100236.84;;;8.31;48.77
29215;BME280;16252;49.816;7.964;2023-04-27T04:45:57;100233.50;;;8.27;48.83
29215;BME280;16252;49.816;7.964;2023-04-27T04:48:22;100223.81;;;8.26;48.84
29215;BME280;16252;49.816;7.964;2023-04-27T04:50:48;100214.56;;;8.17;49.04
29215;BME280;16252;49.816;7.964;2023-04-27T04:53:13;100230.56;;;8.32;49.00
29215;BME280;16252;49.816;7.964;2023-04-27T04:55:38;100216.94;;;8.22;48.90
29215;BME280;16252;49.816;7.964;2023-04-27T04:58:05;100218.84;;;8.20;48.99
29215;BME280;16252;49.816;7.964;2023-04-27T05:00:30;100232.44;;;8.30;49.01
29215;BME280;16252;49.816;7.964;2023-04-27T05:02:55;100229.78;;;8.30;48.93
29215;BME280;16252;49.816;7.964;2023-04-27T05:05:20;100244.38;;;8.38;48.78
29215;BME280;16252;49.816;7.964;2023-04-27T05:07:46;100243.03;;;8.45;48.88
29215;BME280;16252;49.816;7.964;2023-04-27T05:10:11;100259.88;;;8.60;48.89
29215;BME280;16252;49.816;7.964;2023-04-27T05:12:36;100242.53;;;8.53;48.87
29215;BME280;16252;49.816;7.964;2023-04-27T05:15:02;100260.53;;;8.64;48.92
29215;BME280;16252;49.816;7.964;2023-04-27T05:17:28;100239.63;;;8.43;49.04
29215;BME280;16252;49.816;7.964;2023-04-27T05:19:53;100232.38;;;8.45;48.92
29215;BME280;16252;49.816;7.964;2023-04-27T05:22:18;100258.53;;;8.67;48.98
29215;BME280;16252;49.816;7.964;2023-04-27T05:24:43;100241.09;;;8.62;48.98
29215;BME280;16252;49.816;7.964;2023-04-27T05:27:11;100271.56;;;8.86;49.34
29215;BME280;16252;49.816;7.964;2023-04-27T05:29:37;100268.69;;;8.89;48.95
29215;BME280;16252;49.816;7.964;2023-04-27T05:32:03;100262.38;;;8.90;48.87
29215;BME280;16252;49.816;7.964;2023-04-27T05:34:28;100266.16;;;9.01;49.04
29215;BME280;16252;49.816;7.964;2023-04-27T05:36:53;100265.00;;;9.05;49.18
29215;BME280;16252;49.816;7.964;2023-04-27T05:39:19;100275.72;;;9.18;49.40
29215;BME280;16252;49.816;7.964;2023-04-27T05:41:44;100259.91;;;9.15;49.14
29215;BME280;16252;49.816;7.964;2023-04-27T05:44:09;100271.56;;;9.26;49.14
29215;BME280;16252;49.816;7.964;2023-04-27T05:46:35;100246.44;;;9.16;49.12
29215;BME280;16252;49.816;7.964;2023-04-27T05:49:00;100255.75;;;9.23;49.09
29215;BME280;16252;49.816;7.964;2023-04-27T05:51:26;100287.34;;;9.44;49.20
29215;BME280;16252;49.816;7.964;2023-04-27T05:53:51;100267.16;;;9.40;49.20
29215;BME280;16252;49.816;7.964;2023-04-27T05:56:19;100294.31;;;9.59;49.33
29215;BME280;16252;49.816;7.964;2023-04-27T05:58:44;100252.41;;;9.47;49.32
29215;BME280;16252;49.816;7.964;2023-04-27T06:01:10;100273.47;;;9.64;49.48
29215;BME280;16252;49.816;7.964;2023-04-27T06:03:35;100298.44;;;9.90;49.48
29215;BME280;16252;49.816;7.964;2023-04-27T06:06:00;100286.47;;;9.96;49.25
29215;BME280;16252;49.816;7.964;2023-04-27T06:08:26;100285.94;;;10.04;49.37
29215;BME280;16252;49.816;7.964;2023-04-27T06:10:52;100294.16;;;10.13;49.53
29215;BME280;16252;49.816;7.964;2023-04-27T06:13:18;100303.59;;;10.32;48.94
29215;BME280;16252;49.816;7.964;2023-04-27T06:15:44;100297.94;;;10.36;49.20
29215;BME280;16252;49.816;7.964;2023-04-27T06:18:10;100313.88;;;10.51;48.89
29215;BME280;16252;49.816;7.964;2023-04-27T06:20:35;100299.19;;;10.56;49.12
29215;BME280;16252;49.816;7.964;2023-04-27T06:23:00;100280.56;;;10.55;48.76
29215;BME280;16252;49.816;7.964;2023-04-27T06:25:26;100281.38;;;10.68;48.64
29215;BME280;16252;49.816;7.964;2023-04-27T06:27:55;100287.69;;;10.80;48.48
29215;BME280;16252;49.816;7.964;2023-04-27T06:30:21;100262.97;;;10.76;48.48
29215;BME280;16252;49.816;7.964;2023-04-27T06:32:47;100321.03;;;11.24;48.31
29215;BME280;16252;49.816;7.964;2023-04-27T06:35:12;100302.28;;;11.24;47.99
29215;BME280;16252;49.816;7.964;2023-04-27T06:37:37;100258.97;;;11.06;47.84
29215;BME280;16252;49.816;7.964;2023-04-27T06:40:03;100311.41;;;11.45;47.75
29215;BME280;16252;49.816;7.964;2023-04-27T06:42:29;100271.91;;;11.36;47.54
29215;BME280;16252;49.816;7.964;2023-04-27T06:44:54;100314.53;;;11.63;47.54
29215;BME280;16252;49.816;7.964;2023-04-27T06:47:20;100304.06;;;11.71;47.30
29215;BME280;16252;49.816;7.964;2023-04-27T06:49:46;100260.03;;;11.52;46.96
29215;BME280;16252;49.816;7.964;2023-04-27T06:52:12;100269.22;;;11.71;46.71
29215;BME280;16252;49.816;7.964;2023-04-27T06:54:37;100294.53;;;11.91;46.79
29215;BME280;16252;49.816;7.964;2023-04-27T06:57:02;100319.06;;;12.09;46.87
29215;BME280;16252;49.816;7.964;2023-04-27T06:59:28;100312.88;;;12.20;46.60
29215;BME280;16252;49.816;7.964;2023-04-27T07:01:53;100307.16;;;12.25;46.45
29215;BME280;16252;49.816;7.964;2023-04-27T07:04:18;100299.22;;;12.23;45.86
29215;BME280;16252;49.816;7.964;2023-04-27T07:06:43;100301.19;;;12.32;45.88
29215;BME280;16252;49.816;7.964;2023-04-27T07:09:09;100277.38;;;12.17;45.74
29215;BME280;16252;49.816;7.964;2023-04-27T07:11:34;100283.75;;;12.27;45.84
29215;BME280;16252;49.816;7.964;2023-04-27T07:13:59;100314.72;;;12.42;45.61
29215;BME280;16252;49.816;7.964;2023-04-27T07:16:24;100300.56;;;12.40;45.68
29215;BME280;16252;49.816;7.964;2023-04-27T07:18:50;100294.25;;;12.41;45.54
29215;BME280;16252;49.816;7.964;2023-04-27T07:21:15;100284.25;;;12.43;45.65
29215;BME280;16252;49.816;7.964;2023-04-27T07:23:40;100295.19;;;12.63;45.99
29215;BME280;16252;49.816;7.964;2023-04-27T07:26:06;100315.19;;;12.81;45.58
29215;BME280;16252;49.816;7.964;2023-04-27T07:28:32;100317.63;;;12.95;45.61
29215;BME280;16252;49.816;7.964;2023-04-27T07:30:59;100279.69;;;12.89;45.43
29215;BME280;16252;49.816;7.964;2023-04-27T07:33:25;100305.63;;;13.11;45.36
29215;BME280;16252;49.816;7.964;2023-04-27T07:35:51;100293.41;;;13.18;45.69
29215;BME280;16252;49.816;7.964;2023-04-27T07:38:18;100304.84;;;13.31;45.60
29215;BME280;16252;49.816;7.964;2023-04-27T07:40:43;100305.56;;;13.44;45.28
29215;BME280;16252;49.816;7.964;2023-04-27T07:43:09;100261.38;;;13.26;45.25
29215;BME280;16252;49.816;7.964;2023-04-27T07:45:34;100278.53;;;13.46;45.24
29215;BME280;16252;49.816;7.964;2023-04-27T07:48:03;100293.53;;;13.60;44.80
29215;BME280;16252;49.816;7.964;2023-04-27T07:50:29;100276.78;;;13.56;44.98
29215;BME280;16252;49.816;7.964;2023-04-27T07:52:55;100288.34;;;13.68;44.96
29215;BME280;16252;49.816;7.964;2023-04-27T07:55:22;100263.22;;;13.58;45.08
29215;BME280;16252;49.816;7.964;2023-04-27T07:57:48;100265.53;;;13.62;44.45
29215;BME280;16252;49.816;7.964;2023-04-27T08:00:14;100270.09;;;13.72;44.69
29215;BME280;16252;49.816;7.964;2023-04-27T08:02:40;100272.59;;;13.84;44.24
29215;BME280;16252;49.816;7.964;2023-04-27T08:05:05;100260.03;;;13.85;44.28
29215;BME280;16252;49.816;7.964;2023-04-27T08:07:32;100272.44;;;14.07;44.06
29215;BME280;16252;49.816;7.964;2023-04-27T08:09:57;100258.59;;;14.12;43.99
29215;BME280;16252;49.816;7.964;2023-04-27T08:12:23;100231.91;;;13.99;43.79
29215;BME280;16252;49.816;7.964;2023-04-27T08:14:48;100264.34;;;14.28;43.54
29215;BME280;16252;49.816;7.964;2023-04-27T08:17:13;100282.03;;;14.51;43.57
29215;BME280;16252;49.816;7.964;2023-04-27T08:19:39;100281.44;;;14.69;43.85
29215;BME280;16252;49.816;7.964;2023-04-27T08:22:05;100271.94;;;14.74;43.15
29215;BME280;16252;49.816;7.964;2023-04-27T08:24:30;100271.28;;;14.92;43.25
29215;BME280;16252;49.816;7.964;2023-04-27T08:26:55;100271.44;;;15.10;42.91
29215;BME280;16252;49.816;7.964;2023-04-27T08:29:21;100279.28;;;15.32;42.33
29215;BME280;16252;49.816;7.964;2023-04-27T08:31:46;100260.13;;;15.45;42.52
29215;BME280;16252;49.816;7.964;2023-04-27T08:34:12;100275.88;;;15.89;42.38
29215;BME280;16252;49.816;7.964;2023-04-27T08:36:37;100272.72;;;16.40;43.18
29215;BME280;16252;49.816;7.964;2023-04-27T08:39:02;100260.50;;;17.01;42.67
29215;BME280;16252;49.816;7.964;2023-04-27T08:41:31;100257.34;;;17.77;42.97
29215;BME280;16252;49.816;7.964;2023-04-27T08:43:57;100274.50;;;18.73;42.22
29215;BME280;16252;49.816;7.964;2023-04-27T08:46:23;100285.97;;;19.68;41.18
29215;BME280;16252;49.816;7.964;2023-04-27T08:48:52;100289.91;;;20.62;40.12
29215;BME280;16252;49.816;7.964;2023-04-27T08:51:18;100294.63;;;21.47;39.03
29215;BME280;16252;49.816;7.964;2023-04-27T08:53:55;100295.31;;;22.25;39.45
29215;BME280;16252;49.816;7.964;2023-04-27T08:56:24;100290.09;;;22.98;36.70
29215;BME280;16252;49.816;7.964;2023-04-27T08:58:50;100278.69;;;23.52;36.80
29215;BME280;16252;49.816;7.964;2023-04-27T09:01:15;100267.28;;;24.13;35.80
29215;BME280;16252;49.816;7.964;2023-04-27T09:03:41;100274.22;;;24.72;35.25
29215;BME280;16252;49.816;7.964;2023-04-27T09:06:07;100253.09;;;25.07;34.60
29215;BME280;16252;49.816;7.964;2023-04-27T09:08:46;100285.50;;;25.78;33.50
29215;BME280;16252;49.816;7.964;2023-04-27T09:11:30;100274.13;;;26.14;33.85
29215;BME280;16252;49.816;7.964;2023-04-27T09:13:57;100279.97;;;26.51;32.55
29215;BME280;16252;49.816;7.964;2023-04-27T09:16:24;100287.06;;;26.86;31.02
29215;BME280;16252;49.816;7.964;2023-04-27T09:18:50;100273.44;;;27.11;31.03
29215;BME280;16252;49.816;7.964;2023-04-27T09:21:26;100285.25;;;27.56;30.66
29215;BME280;16252;49.816;7.964;2023-04-27T09:23:53;100270.28;;;27.84;30.47
29215;BME280;16252;49.816;7.964;2023-04-27T09:26:20;100278.81;;;28.26;30.15
29215;BME280;16252;49.816;7.964;2023-04-27T09:28:48;100268.22;;;28.48;29.41
29215;BME280;16252;49.816;7.964;2023-04-27T09:31:14;100242.44;;;28.61;29.50
29215;BME280;16252;49.816;7.964;2023-04-27T09:33:40;100249.34;;;29.07;29.24
29215;BME280;16252;49.816;7.964;2023-04-27T09:36:05;100257.34;;;29.38;28.96
29215;BME280;16252;49.816;7.964;2023-04-27T09:38:31;100264.41;;;29.76;27.78
29215;BME280;16252;49.816;7.964;2023-04-27T09:40:57;100267.31;;;30.05;27.25
29215;BME280;16252;49.816;7.964;2023-04-27T09:43:23;100259.66;;;30.19;27.44
29215;BME280;16252;49.816;7.964;2023-04-27T09:45:49;100238.91;;;30.28;26.57
29215;BME280;16252;49.816;7.964;2023-04-27T09:48:16;100259.56;;;30.49;26.59
29215;BME280;16252;49.816;7.964;2023-04-27T09:50:44;100245.75;;;30.49;26.60
29215;BME280;16252;49.816;7.964;2023-04-27T09:53:12;100254.47;;;30.70;26.78
29215;BME280;16252;49.816;7.964;2023-04-27T09:55:47;100230.44;;;30.70;26.92
29215;BME280;16252;49.816;7.964;2023-04-27T10:01:29;100257.47;;;31.20;27.27
29215;BME280;16252;49.816;7.964;2023-04-27T10:04:53;100264.72;;;31.38;27.87
29215;BME280;16252;49.816;7.964;2023-04-27T10:07:20;100235.44;;;31.25;25.04
29215;BME280;16252;49.816;7.964;2023-04-27T10:09:47;100225.84;;;31.16;25.51
29215;BME280;16252;49.816;7.964;2023-04-27T10:12:22;100247.22;;;31.21;24.81
29215;BME280;16252;49.816;7.964;2023-04-27T10:14:54;100258.78;;;31.18;24.89
29215;BME280;16252;49.816;7.964;2023-04-27T10:17:31;100233.03;;;31.00;24.43
29215;BME280;16252;49.816;7.964;2023-04-27T10:20:02;100243.56;;;31.03;24.51
29215;BME280;16252;49.816;7.964;2023-04-27T10:22:41;100254.44;;;31.22;25.44
29215;BME280;16252;49.816;7.964;2023-04-27T10:27:47;100254.19;;;31.52;24.50
29215;BME280;16252;49.816;7.964;2023-04-27T10:30:17;100227.88;;;31.49;24.14
29215;BME280;16252;49.816;7.964;2023-04-27T10:32:57;100224.09;;;31.72;25.34
29215;BME280;16252;49.816;7.964;2023-04-27T10:35:34;100245.09;;;32.02;24.96
29215;BME280;16252;49.816;7.964;2023-04-27T10:38:16;100231.00;;;32.04;24.23
29215;BME280;16252;49.816;7.964;2023-04-27T10:40:43;100247.34;;;32.22;23.34
29215;BME280;16252;49.816;7.964;2023-04-27T10:43:12;100239.34;;;32.26;22.96
29215;BME280;16252;49.816;7.964;2023-04-27T10:45:38;100242.47;;;32.29;26.68
29215;BME280;16252;49.816;7.964;2023-04-27T10:48:04;100231.03;;;32.26;23.79
29215;BME280;16252;49.816;7.964;2023-04-27T10:50:30;100242.25;;;32.36;23.46
29215;BME280;16252;49.816;7.964;2023-04-27T10:53:02;100231.47;;;32.34;23.39
29215;BME280;16252;49.816;7.964;2023-04-27T10:55:28;100229.28;;;32.36;22.59
29215;BME280;16252;49.816;7.964;2023-04-27T10:57:55;100234.88;;;32.42;23.03
29215;BME280;16252;49.816;7.964;2023-04-27T11:00:27;100224.72;;;32.47;23.13
29215;BME280;16252;49.816;7.964;2023-04-27T11:02:54;100224.06;;;32.40;22.34
29215;BME280;16252;49.816;7.964;2023-04-27T11:05:22;100216.28;;;32.20;21.92
29215;BME280;16252;49.816;7.964;2023-04-27T11:07:50;100197.41;;;31.78;21.90
29215;BME280;16252;49.816;7.964;2023-04-27T11:10:17;100194.53;;;31.39;21.73
29215;BME280;16252;49.816;7.964;2023-04-27T11:12:43;100183.19;;;30.95;21.60
29215;BME280;16252;49.816;7.964;2023-04-27T11:15:09;100163.16;;;30.48;21.70
29215;BME280;16252;49.816;7.964;2023-04-27T11:17:35;100180.13;;;30.16;21.88
29215;BME280;16252;49.816;7.964;2023-04-27T11:20:00;100176.66;;;29.73;22.02
29215;BME280;16252;49.816;7.964;2023-04-27T11:22:26;100160.50;;;29.23;22.61
29215;BME280;16252;49.816;7.964;2023-04-27T11:24:52;100184.72;;;29.03;22.21
29215;BME280;16252;49.816;7.964;2023-04-27T11:27:18;100193.34;;;28.76;22.75
29215;BME280;16252;49.816;7.964;2023-04-27T11:29:44;100192.66;;;28.44;22.55
29215;BME280;16252;49.816;7.964;2023-04-27T11:32:22;100169.34;;;28.09;23.60
29215;BME280;16252;49.816;7.964;2023-04-27T11:34:49;100168.81;;;27.76;23.01
29215;BME280;16252;49.816;7.964;2023-04-27T11:37:20;100187.72;;;27.65;23.09
29215;BME280;16252;49.816;7.964;2023-04-27T11:39:47;100162.69;;;27.23;23.54
29215;BME280;16252;49.816;7.964;2023-04-27T11:44:48;100176.25;;;27.18;24.54
29215;BME280;16252;49.816;7.964;2023-04-27T11:47:15;100163.44;;;26.67;24.40
29215;BME280;16252;49.816;7.964;2023-04-27T11:49:46;100164.34;;;26.54;24.37
29215;BME280;16252;49.816;7.964;2023-04-27T11:52:12;100156.34;;;26.33;24.40
29215;BME280;16252;49.816;7.964;2023-04-27T11:54:38;100149.25;;;26.12;24.08
29215;BME280;16252;49.816;7.964;2023-04-27T11:57:04;100172.66;;;26.08;24.71
29215;BME280;16252;49.816;7.964;2023-04-27T11:59:30;100141.09;;;25.72;24.41
29215;BME280;16252;49.816;7.964;2023-04-27T12:01:55;100147.22;;;25.61;24.54
29215;BME280;16252;49.816;7.964;2023-04-27T12:04:21;100147.41;;;25.39;24.79
29215;BME280;16252;49.816;7.964;2023-04-27T12:06:46;100137.53;;;25.25;24.93
29215;BME280;16252;49.816;7.964;2023-04-27T12:09:11;100121.06;;;25.05;25.17
29215;BME280;16252;49.816;7.964;2023-04-27T12:11:37;100152.84;;;25.06;25.17
29215;BME280;16252;49.816;7.964;2023-04-27T12:14:02;100146.72;;;24.91;25.09
29215;BME280;16252;49.816;7.964;2023-04-27T12:16:28;100157.44;;;24.79;25.50
29215;BME280;16252;49.816;7.964;2023-04-27T12:18:53;100109.09;;;24.44;25.64
29215;BME280;16252;49.816;7.964;2023-04-27T12:21:18;100113.88;;;24.29;25.92
29215;BME280;16252;49.816;7.964;2023-04-27T12:23:44;100124.81;;;24.29;25.58
29215;BME280;16252;49.816;7.964;2023-04-27T12:26:10;100155.13;;;24.34;26.06
29215;BME280;16252;49.816;7.964;2023-04-27T12:28:36;100110.16;;;24.02;26.18
29215;BME280;16252;49.816;7.964;2023-04-27T12:31:04;100147.28;;;24.25;26.07
29215;BME280;16252;49.816;7.964;2023-04-27T12:33:30;100133.31;;;24.06;25.84
29215;BME280;16252;49.816;7.964;2023-04-27T12:35:55;100105.69;;;23.88;26.11
29215;BME280;16252;49.816;7.964;2023-04-27T12:38:21;100136.22;;;23.98;26.06
29215;BME280;16252;49.816;7.964;2023-04-27T12:40:47;100135.75;;;23.88;26.47
29215;BME280;16252;49.816;7.964;2023-04-27T12:43:12;100114.97;;;23.65;26.86
29215;BME280;16252;49.816;7.964;2023-04-27T12:45:37;100124.59;;;23.61;26.52
29215;BME280;16252;49.816;7.964;2023-04-27T12:48:03;100115.91;;;23.51;26.26
29215;BME280;16252;49.816;7.964;2023-04-27T12:50:29;100101.50;;;23.35;26.42
29215;BME280;16252;49.816;7.964;2023-04-27T12:52:55;100125.94;;;23.44;26.66
29215;BME280;16252;49.816;7.964;2023-04-27T12:55:20;100093.22;;;23.22;27.03
29215;BME280;16252;49.816;7.964;2023-04-27T12:57:45;100089.44;;;23.23;27.15
29215;BME280;16252;49.816;7.964;2023-04-27T13:00:11;100098.47;;;23.24;27.44